Time;durP1;ratioP1;P1;durP2;ratioP2;P2;SDS_P1;SDS_P2;PMS_P1;PMS_P2;Temp;Humidity;BMP_temperature;BMP_pressure;BME280_temperature;BME280_humidity;BME280_pressure;Samples;Min_cycle;Max_cycle;Signal;HPM_P1;HPM_P2
2022/04/15 00:01:06;;;;;;;;;17.60;16.80;;;;;16.87;21.28;99675.16;5055580;28;8860;-81
2022/04/15 00:03:35;;;;;;;;;17.40;16.40;;;;;16.88;20.95;99674.25;5033845;28;8840;-81
2022/04/15 00:06:08;;;;;;;;;17.00;16.25;;;;;16.89;21.16;99668.94;4983865;28;8833;-80
2022/04/15 00:08:39;;;;;;;;;20.75;20.50;;;;;16.90;21.26;99668.06;5044556;28;8874;-82
2022/04/15 00:11:09;;;;;;;;;24.75;21.25;;;;;16.89;21.42;99668.94;5028877;28;8871;-80
2022/04/15 00:13:38;;;;;;;;;17.80;14.40;;;;;16.87;21.37;99659.34;5046124;28;8860;-83
2022/04/15 00:16:08;;;;;;;;;23.00;21.50;;;;;16.85;21.69;99662.03;5029018;28;8862;-80
2022/04/15 00:18:38;;;;;;;;;21.75;18.50;;;;;16.84;21.62;99664.69;5064239;28;8870;-82
2022/04/15 00:21:06;;;;;;;;;23.75;23.75;;;;;16.83;21.75;99658.56;5048519;28;8846;-81
2022/04/15 00:23:35;;;;;;;;;26.00;25.25;;;;;16.82;22.24;99664.72;5048550;28;8877;-80
2022/04/15 00:26:07;;;;;;;;;25.00;21.25;;;;;16.80;21.43;99657.75;5048334;28;8923;-82
2022/04/15 00:28:36;;;;;;;;;22.75;21.50;;;;;16.80;20.99;99655.09;5048502;28;8862;-81
2022/04/15 00:31:04;;;;;;;;;23.25;20.75;;;;;16.75;21.23;99655.22;5031812;28;8935;-81
2022/04/15 00:33:34;;;;;;;;;19.60;19.20;;;;;16.76;21.37;99649.03;5032103;28;8857;-80
2022/04/15 00:36:03;;;;;;;;;21.40;21.40;;;;;16.76;21.31;99655.16;5030398;28;8868;-82
2022/04/15 00:38:32;;;;;;;;;26.25;22.75;;;;;16.75;20.92;99655.22;5048127;28;8858;-81
2022/04/15 00:41:01;;;;;;;;;18.25;18.25;;;;;16.76;20.74;99656.94;5069025;28;8854;-81
2022/04/15 00:43:32;;;;;;;;;20.20;19.00;;;;;16.71;20.54;99656.19;5067266;28;8879;-81
2022/04/15 00:46:08;;;;;;;;;18.80;18.00;;;;;16.72;20.66;99655.28;5050499;28;8869;-81
2022/04/15 00:48:37;;;;;;;;;32.50;29.50;;;;;16.61;22.54;99660.81;5079281;28;8893;-80
2022/04/15 00:51:07;;;;;;;;;37.75;34.00;;;;;16.33;23.67;99657.94;5086337;28;8967;-82
2022/04/15 00:53:40;;;;;;;;;32.25;29.50;;;;;16.28;22.80;99657.19;5068367;28;8876;-82
2022/04/15 00:56:11;;;;;;;;;37.50;33.50;;;;;16.28;24.56;99654.56;5069031;28;8840;-81
2022/04/15 00:58:43;;;;;;;;;34.50;30.00;;;;;16.05;23.94;99661.19;5052044;28;8938;-81
2022/04/15 01:01:12;;;;;;;;;33.25;31.75;;;;;15.87;25.42;99657.16;5051996;28;8848;-80
2022/04/15 01:03:41;;;;;;;;;29.00;28.25;;;;;15.91;25.68;99658.81;5068297;28;9594;-82
2022/04/15 01:06:18;;;;;;;;;32.00;31.75;;;;;15.92;25.14;99652.66;5066392;28;8840;-81
2022/04/15 01:08:51;;;;;;;;;32.25;31.25;;;;;15.99;25.01;99650.75;5003449;28;8861;-82
2022/04/15 01:11:23;;;;;;;;;43.75;38.50;;;;;16.03;26.47;99655.09;5022683;28;9028;-81
2022/04/15 01:13:54;;;;;;;;;25.00;23.25;;;;;16.05;24.02;99639.25;5057395;28;9574;-82
2022/04/15 01:16:24;;;;;;;;;17.25;16.25;;;;;16.07;23.26;99642.75;5055169;28;8958;-81
2022/04/15 01:18:53;;;;;;;;;19.75;19.75;;;;;16.10;23.14;99645.28;5035056;28;8860;-81
2022/04/15 01:21:25;;;;;;;;;15.20;14.60;;;;;16.06;22.89;99643.63;5049471;28;8863;-81
2022/04/15 01:23:59;;;;;;;;;15.20;15.20;;;;;16.08;22.85;99641.81;4999437;28;8854;-82
2022/04/15 01:26:28;;;;;;;;;8.00;6.25;;;;;16.09;22.80;99639.16;4963521;28;8915;-81
2022/04/15 01:28:57;;;;;;;;;13.20;11.40;;;;;16.09;22.38;99625.16;5011349;28;8872;-82
2022/04/15 01:31:31;;;;;;;;;16.60;14.00;;;;;16.08;22.34;99628.66;5011991;28;8844;-82
2022/04/15 01:34:00;;;;;;;;;15.40;15.40;;;;;16.08;22.40;99629.53;5011390;28;9645;-81
2022/04/15 01:36:29;;;;;;;;;14.40;13.40;;;;;16.05;22.75;99631.34;5027612;28;8922;-81
2022/04/15 01:39:00;;;;;;;;;14.60;13.40;;;;;16.03;22.59;99631.41;5027228;28;9008;-81
2022/04/15 01:41:29;;;;;;;;;13.20;12.40;;;;;16.03;22.76;99634.03;5011025;28;8840;-80
2022/04/15 01:43:58;;;;;;;;;16.40;15.80;;;;;16.02;23.19;99629.66;4994536;28;8860;-80
2022/04/15 01:46:27;;;;;;;;;15.60;14.60;;;;;16.06;22.98;99627.84;4994276;28;8875;-82
2022/04/15 01:48:55;;;;;;;;;15.60;15.60;;;;;16.07;23.48;99626.97;5027140;28;8967;-80
2022/04/15 01:51:24;;;;;;;;;17.60;17.60;;;;;16.06;23.72;99633.09;5011133;28;8875;-80
2022/04/15 01:53:55;;;;;;;;;9.40;9.40;;;;;16.07;23.10;99627.81;5026549;28;8892;-80
2022/04/15 01:56:25;;;;;;;;;16.00;15.20;;;;;16.06;23.22;99627.84;5055487;28;8852;-82
2022/04/15 01:58:54;;;;;;;;;22.25;19.50;;;;;16.08;23.41;99623.41;5050093;28;8840;-80
2022/04/15 02:01:23;;;;;;;;;13.60;13.40;;;;;16.01;22.76;99616.53;5065020;28;8871;-81
2022/04/15 02:03:52;;;;;;;;;14.20;14.20;;;;;15.91;23.05;99618.50;5051763;28;8898;-81
2022/04/15 02:06:22;;;;;;;;;16.00;14.80;;;;;15.89;23.14;99615.91;5064550;28;8849;-81
2022/04/15 02:08:50;;;;;;;;;15.40;14.80;;;;;15.91;23.25;99615.88;5049497;28;8849;-81
2022/04/15 02:11:19;;;;;;;;;19.40;17.40;;;;;15.88;23.55;99613.31;5015696;28;8841;-81
2022/04/15 02:13:50;;;;;;;;;18.60;18.20;;;;;15.84;23.61;99617.78;5091986;28;8869;-82
2022/04/15 02:16:19;;;;;;;;;21.00;18.60;;;;;15.85;23.73;99611.63;5069415;28;8947;-80
2022/04/15 02:18:48;;;;;;;;;16.00;15.00;;;;;15.87;23.77;99608.97;5068100;28;8980;-80
2022/04/15 02:21:17;;;;;;;;;16.80;16.80;;;;;15.85;23.85;99606.34;5068453;28;8869;-81
2022/04/15 02:23:46;;;;;;;;;16.80;15.00;;;;;15.82;23.75;99610.81;5068166;28;8861;-80
2022/04/15 02:26:14;;;;;;;;;16.60;15.20;;;;;15.74;24.02;99608.34;5085182;28;8870;-81
2022/04/15 02:28:43;;;;;;;;;17.20;15.00;;;;;15.68;24.05;99604.03;5054752;28;8833;-81
2022/04/15 02:31:14;;;;;;;;;16.40;15.00;;;;;15.60;23.94;99608.59;5049638;28;8966;-79
2022/04/15 02:33:42;;;;;;;;;10.60;7.60;;;;;15.53;23.88;99607.84;5064684;28;8860;-79
2022/04/15 02:36:11;;;;;;;;;16.40;14.40;;;;;15.47;23.79;99607.97;5047701;28;8957;-80
2022/04/15 02:38:40;;;;;;;;;13.40;13.40;;;;;15.49;23.71;99611.44;5089841;28;8849;-80
2022/04/15 02:41:10;;;;;;;;;10.60;10.60;;;;;15.48;23.33;99598.31;5057740;28;8857;-81
2022/04/15 02:43:40;;;;;;;;;14.40;14.20;;;;;15.52;23.30;99594.72;5032512;28;8872;-80
2022/04/15 02:46:10;;;;;;;;;15.00;15.00;;;;;15.46;23.64;99594.84;5016803;28;8872;-80
2022/04/15 02:48:42;;;;;;;;;16.20;16.20;;;;;15.44;23.84;99591.41;5068293;28;8861;-80
2022/04/15 02:51:14;;;;;;;;;19.20;15.60;;;;;15.31;23.60;99591.66;5063087;28;9036;-80
2022/04/15 02:53:43;;;;;;;;;21.00;19.40;;;;;15.26;23.87;99592.63;5016714;28;8868;-81
2022/04/15 02:56:12;;;;;;;;;18.00;15.20;;;;;15.17;24.14;99591.88;5047569;28;8868;-82
2022/04/15 02:58:40;;;;;;;;;13.20;12.40;;;;;15.16;23.88;99592.81;5080514;28;8868;-81
2022/04/15 03:01:10;;;;;;;;;14.40;13.60;;;;;15.14;24.03;99589.34;5064396;28;8841;-82
2022/04/15 03:03:39;;;;;;;;;14.40;13.80;;;;;15.16;23.68;99586.66;5050683;28;8876;-83
2022/04/15 03:06:09;;;;;;;;;15.60;14.60;;;;;15.17;24.00;99585.78;5067216;28;8896;-81
2022/04/15 03:08:39;;;;;;;;;11.40;10.60;;;;;15.25;23.96;99586.50;5073051;28;8888;-82
2022/04/15 03:11:07;;;;;;;;;17.00;14.40;;;;;15.30;23.88;99589.03;5067406;28;8977;-82
2022/04/15 03:13:36;;;;;;;;;13.40;12.20;;;;;15.32;23.64;99584.63;5013020;28;8849;-84
2022/04/15 03:16:06;;;;;;;;;14.60;13.80;;;;;15.38;23.46;99587.97;5030072;28;8829;-82
2022/04/15 03:18:34;;;;;;;;;13.40;12.80;;;;;15.42;23.39;99585.31;4965530;28;8914;-81
2022/04/15 03:21:03;;;;;;;;;18.40;16.80;;;;;15.44;23.23;99592.25;4984467;28;8854;-81
2022/04/15 03:23:34;;;;;;;;;13.00;13.00;;;;;15.47;23.35;99586.09;5033446;28;8904;-82
2022/04/15 03:26:03;;;;;;;;;14.00;12.20;;;;;15.50;23.52;99588.63;5000012;28;8870;-80
2022/04/15 03:28:32;;;;;;;;;13.00;10.80;;;;;15.51;23.58;99583.34;5033483;28;8870;-81
2022/04/15 03:31:01;;;;;;;;;15.40;13.80;;;;;15.53;23.50;99586.81;5016647;28;8846;-82
2022/04/15 03:33:30;;;;;;;;;8.20;6.80;;;;;15.54;23.55;99585.94;5032636;28;8870;-81
2022/04/15 03:36:00;;;;;;;;;16.20;15.20;;;;;15.55;23.77;99587.66;5032454;28;8903;-83
2022/04/15 03:38:29;;;;;;;;;18.40;14.80;;;;;15.55;23.71;99590.28;5016187;28;8913;-79
2022/04/15 03:40:59;;;;;;;;;13.40;12.40;;;;;15.54;23.51;99587.72;5032768;28;8877;-80
2022/04/15 03:43:29;;;;;;;;;13.60;13.00;;;;;15.55;23.51;99586.78;5027074;28;8870;-83
2022/04/15 03:45:58;;;;;;;;;17.25;16.25;;;;;15.52;24.58;99594.72;5049763;28;8896;-80
2022/04/15 03:48:27;;;;;;;;;21.25;20.75;;;;;15.36;25.38;99591.53;5065308;28;8881;-81
2022/04/15 03:50:55;;;;;;;;;67.67;55.00;;;;;15.09;27.48;99592.94;5043208;28;8866;-82
2022/04/15 03:53:25;;;;;;;;;21.50;19.25;;;;;14.93;26.09;99595.84;5069197;28;9056;-81
2022/04/15 03:55:53;;;;;;;;;29.25;27.25;;;;;14.81;27.96;99596.91;5071935;28;8842;-82
2022/04/15 03:58:24;;;;;;;;;33.25;29.50;;;;;14.18;30.19;99605.75;5004297;28;9858;-80
2022/04/15 04:00:54;;;;;;;;;26.00;26.00;;;;;13.90;30.35;99607.88;5104318;28;8929;-82
2022/04/15 04:03:23;;;;;;;;;26.25;24.50;;;;;13.98;28.99;99613.88;5071219;28;8865;-82
2022/04/15 04:05:52;;;;;;;;;19.75;19.75;;;;;14.02;28.31;99612.94;5067565;28;8857;-81
2022/04/15 04:08:21;;;;;;;;;19.75;19.75;;;;;13.95;28.89;99618.28;5068425;28;8831;-81
2022/04/15 04:10:50;;;;;;;;;21.00;20.00;;;;;13.76;27.76;99618.53;5053688;28;8969;-80
2022/04/15 04:13:19;;;;;;;;;28.50;27.00;;;;;13.83;28.69;99614.06;5019698;28;8854;-82
2022/04/15 04:15:49;;;;;;;;;35.00;33.50;;;;;13.89;28.38;99623.63;5076271;28;8881;-81
2022/04/15 04:18:21;;;;;;;;;34.00;31.50;;;;;13.99;28.66;99626.09;5086278;28;8982;-82
2022/04/15 04:20:50;;;;;;;;;28.50;27.50;;;;;14.08;29.08;99622.47;5062041;28;8951;-80
2022/04/15 04:23:19;;;;;;;;;25.25;21.75;;;;;14.14;29.21;99621.53;5051907;28;8900;-81
2022/04/15 04:25:48;;;;;;;;;47.50;41.25;;;;;14.17;29.00;99617.09;5032274;28;8934;-80
2022/04/15 04:28:17;;;;;;;;;55.75;47.00;;;;;14.18;29.72;99624.09;5032919;28;8935;-80
2022/04/15 04:30:45;;;;;;;;;47.25;39.25;;;;;14.21;29.52;99624.06;5036652;28;8854;-80
2022/04/15 04:33:15;;;;;;;;;33.25;32.75;;;;;14.21;29.36;99618.81;5034377;28;8858;-81
2022/04/15 04:35:44;;;;;;;;;92.50;83.25;;;;;14.15;29.63;99618.03;5015434;28;8896;-80
2022/04/15 04:38:13;;;;;;;;;29.25;22.75;;;;;14.15;28.61;99613.63;5031990;28;10801;-78
2022/04/15 04:40:42;;;;;;;;;30.00;26.00;;;;;14.13;29.50;99618.03;5047983;28;8858;-80
2022/04/15 04:43:11;;;;;;;;;24.25;24.25;;;;;14.04;27.16;99613.81;5032531;28;8849;-82
2022/04/15 04:45:40;;;;;;;;;23.50;23.50;;;;;14.14;29.06;99613.66;5008679;28;8842;-80
2022/04/15 04:48:09;;;;;;;;;25.75;24.25;;;;;14.19;29.17;99617.09;4949914;28;8868;-81
2022/04/15 04:50:40;;;;;;;;;29.75;27.50;;;;;14.22;28.82;99615.28;5011612;28;9637;-82
2022/04/15 04:53:09;;;;;;;;;13.25;13.00;;;;;14.28;28.92;99614.34;4988619;28;8877;-83
2022/04/15 04:55:38;;;;;;;;;28.50;28.50;;;;;14.33;28.80;99614.25;4979068;28;8855;-81
2022/04/15 04:58:07;;;;;;;;;25.00;24.00;;;;;14.29;28.11;99623.06;5008340;28;9609;-80
2022/04/15 05:00:36;;;;;;;;;27.50;24.75;;;;;14.27;27.53;99619.59;4994485;28;8958;-81
2022/04/15 05:03:04;;;;;;;;;25.75;23.75;;;;;14.19;28.29;99620.56;4990866;28;8956;-81
2022/04/15 05:05:34;;;;;;;;;23.50;21.50;;;;;14.27;27.43;99622.22;4943045;28;8935;-82
2022/04/15 05:08:05;;;;;;;;;32.50;31.25;;;;;14.41;28.64;99622.91;5008211;28;8859;-81
2022/04/15 05:10:34;;;;;;;;;26.25;25.50;;;;;14.52;29.11;99620.97;4974031;28;10257;-81
2022/04/15 05:13:03;;;;;;;;;35.75;31.75;;;;;14.59;29.43;99620.03;4960103;28;8894;-79
2022/04/15 05:15:32;;;;;;;;;18.25;16.25;;;;;14.65;30.25;99633.94;4974463;28;8895;-77
2022/04/15 05:18:01;;;;;;;;;39.75;36.00;;;;;14.69;30.58;99628.63;5022808;28;8860;-78
2022/04/15 05:20:30;;;;;;;;;44.50;39.25;;;;;14.84;31.34;99631.88;5010375;28;8934;-79
2022/04/15 05:22:58;;;;;;;;;41.25;35.50;;;;;14.98;30.63;99632.53;5021444;28;8874;-80
2022/04/15 05:25:29;;;;;;;;;48.25;39.50;;;;;15.13;30.84;99623.50;5028139;28;8926;-79
2022/04/15 05:27:58;;;;;;;;;47.00;38.25;;;;;15.27;31.07;99625.88;5039015;28;8887;-80
2022/04/15 05:30:27;;;;;;;;;45.75;39.75;;;;;15.41;30.69;99615.97;5057243;28;8874;-79
2022/04/15 05:32:55;;;;;;;;;50.00;42.75;;;;;15.56;30.15;99618.31;5054116;28;8879;-82
2022/04/15 05:35:24;;;;;;;;;44.50;39.50;;;;;15.72;29.56;99621.47;5052945;28;8839;-79
2022/04/15 05:37:52;;;;;;;;;35.25;33.75;;;;;15.83;28.10;99620.44;5062453;28;8910;-79
2022/04/15 05:40:22;;;;;;;;;39.00;35.00;;;;;15.94;28.58;99608.78;5047777;28;10050;-81
2022/04/15 05:42:52;;;;;;;;;48.25;40.50;;;;;16.08;28.84;99607.63;5068241;28;8874;-79
2022/04/15 05:45:21;;;;;;;;;45.25;38.75;;;;;16.20;28.27;99611.75;5047881;28;9011;-80
2022/04/15 05:47:53;;;;;;;;;46.00;38.25;;;;;16.40;27.80;99609.53;5048903;28;9019;-80
2022/04/15 05:50:22;;;;;;;;;46.25;39.50;;;;;16.62;27.76;99607.25;5057536;28;8837;-80
2022/04/15 05:52:50;;;;;;;;;40.25;35.50;;;;;16.77;26.92;99611.28;5048133;28;8927;-80
2022/04/15 05:55:19;;;;;;;;;47.75;41.00;;;;;16.88;27.80;99614.56;5067574;28;8846;-78
2022/04/15 05:57:48;;;;;;;;;36.50;34.50;;;;;16.99;27.52;99610.75;5065494;28;8854;-79
2022/04/15 06:00:18;;;;;;;;;42.25;35.75;;;;;17.09;28.21;99609.63;5059958;28;8877;-81
2022/04/15 06:02:46;;;;;;;;;52.50;42.25;;;;;17.23;28.86;99612.75;5063147;28;8885;-79
2022/04/15 06:05:24;;;;;;;;;49.00;39.00;;;;;17.37;28.80;99615.00;5072353;28;8848;-70
2022/04/15 06:07:53;;;;;;;;;43.00;36.25;;;;;17.50;28.58;99616.44;5048721;28;8864;-70
2022/04/15 06:10:21;;;;;;;;;33.50;32.00;;;;;17.69;28.07;99629.06;5045569;28;8872;-78
2022/04/15 06:12:57;;;;;;;;;35.00;32.00;;;;;17.62;28.84;99624.91;5048580;28;8868;-81
2022/04/15 06:15:31;;;;;;;;;34.25;32.00;;;;;17.67;29.36;99631.75;5081170;28;8904;-80
2022/04/15 06:18:00;;;;;;;;;32.00;30.25;;;;;17.72;30.03;99632.50;5044364;28;9636;-79
2022/04/15 06:20:30;;;;;;;;;40.25;35.00;;;;;17.88;29.22;99637.34;5062052;28;8954;-80
2022/04/15 06:22:59;;;;;;;;;39.25;34.00;;;;;17.70;28.58;99642.22;5086070;28;8873;-80
2022/04/15 06:25:28;;;;;;;;;41.00;34.75;;;;;17.42;29.11;99638.63;5054340;28;9040;-78
2022/04/15 06:27:57;;;;;;;;;36.50;31.75;;;;;17.21;29.83;99642.69;5073306;28;9104;-79
2022/04/15 06:30:27;;;;;;;;;35.00;32.00;;;;;17.42;29.80;99636.84;5074894;28;8863;-78
2022/04/15 06:32:57;;;;;;;;;32.75;31.00;;;;;17.55;29.90;99637.38;5059286;28;8841;-80
2022/04/15 06:35:25;;;;;;;;;32.25;31.75;;;;;17.65;29.57;99643.25;5067172;28;8874;-77
2022/04/15 06:37:54;;;;;;;;;35.50;29.50;;;;;17.77;29.58;99642.94;5082944;28;8834;-78
2022/04/15 06:40:22;;;;;;;;;41.00;31.50;;;;;17.88;29.53;99640.88;5082775;28;8966;-80
2022/04/15 06:42:51;;;;;;;;;33.25;31.50;;;;;18.06;29.55;99643.88;5050608;28;8865;-80
2022/04/15 06:45:24;;;;;;;;;31.75;28.75;;;;;18.26;28.58;99644.16;5047585;28;8848;-81
2022/04/15 06:47:53;;;;;;;;;27.25;25.75;;;;;18.39;27.67;99642.00;5036221;28;8858;-79
2022/04/15 06:50:24;;;;;;;;;24.25;23.50;;;;;18.49;27.66;99643.44;5048504;28;8880;-78
2022/04/15 06:52:53;;;;;;;;;29.75;27.00;;;;;18.72;27.67;99641.84;5047111;28;8869;-78
2022/04/15 06:55:22;;;;;;;;;35.25;28.75;;;;;18.92;26.63;99635.91;5049676;28;8854;-80
2022/04/15 06:57:50;;;;;;;;;24.00;24.00;;;;;19.07;26.00;99637.19;5079797;28;8861;-80
2022/04/15 07:00:19;;;;;;;;;25.25;25.00;;;;;19.22;24.75;99636.66;5062415;28;8853;-81
2022/04/15 07:02:49;;;;;;;;;24.50;24.25;;;;;19.38;25.46;99628.19;5035946;28;8932;-80
2022/04/15 07:05:19;;;;;;;;;27.75;25.50;;;;;19.46;24.68;99634.94;5004587;28;8870;-80
2022/04/15 07:07:49;;;;;;;;;38.25;33.00;;;;;19.64;24.88;99632.53;5002104;28;8898;-80
2022/04/15 07:10:18;;;;;;;;;26.25;26.25;;;;;19.63;24.41;99626.38;5030713;28;9782;-80
2022/04/15 07:12:48;;;;;;;;;26.25;23.75;;;;;19.75;24.85;99627.75;5028693;28;8860;-80
2022/04/15 07:15:17;;;;;;;;;25.50;22.50;;;;;19.85;22.96;99621.22;4997359;28;8928;-79
2022/04/15 07:17:45;;;;;;;;;24.25;21.50;;;;;20.02;23.49;99619.72;5011841;28;8838;-81
2022/04/15 07:20:14;;;;;;;;;29.25;26.50;;;;;19.85;23.52;99625.66;5039695;28;8956;-79
2022/04/15 07:22:43;;;;;;;;;23.40;22.20;;;;;19.62;23.55;99622.03;5026692;28;8850;-80
2022/04/15 07:25:13;;;;;;;;;24.50;20.50;;;;;19.34;24.68;99622.16;5024385;28;8860;-80
2022/04/15 07:27:41;;;;;;;;;25.50;24.00;;;;;18.95;25.67;99621.75;5026418;28;8860;-80
2022/04/15 07:30:11;;;;;;;;;24.75;23.00;;;;;18.77;25.85;99617.88;5028157;28;8850;-79
2022/04/15 07:32:39;;;;;;;;;23.25;20.25;;;;;19.17;25.33;99613.94;5011559;28;8866;-79
2022/04/15 07:35:08;;;;;;;;;26.25;23.50;;;;;19.22;24.83;99609.34;5058265;28;8872;-78
2022/04/15 07:37:38;;;;;;;;;25.25;24.00;;;;;19.27;24.71;99605.63;5043670;28;8847;-81
2022/04/15 07:40:07;;;;;;;;;23.00;22.00;;;;;19.49;24.53;99604.88;5082722;28;8896;-80
2022/04/15 07:42:37;;;;;;;;;18.25;18.00;;;;;19.84;24.14;99597.44;5057178;28;8840;-79
2022/04/15 07:45:08;;;;;;;;;18.00;18.00;;;;;20.12;23.35;99602.53;5067605;28;8872;-79
2022/04/15 07:47:36;;;;;;;;;17.60;17.60;;;;;20.38;23.39;99604.16;5055975;28;8905;-81
2022/04/15 07:50:22;;;;;;;;;22.40;15.20;;;;;20.59;22.78;99605.06;5064830;28;8858;-80
2022/04/15 07:52:51;;;;;;;;;19.00;19.00;;;;;20.76;22.32;99601.78;5047544;28;8904;-80
2022/04/15 07:55:19;;;;;;;;;18.75;18.50;;;;;20.83;22.17;99607.66;5078877;28;8841;-80
2022/04/15 07:57:50;;;;;;;;;16.60;16.60;;;;;20.73;21.92;99609.84;5054565;28;8880;-80
2022/04/15 08:00:20;;;;;;;;;16.00;14.00;;;;;20.99;22.46;99607.91;5067692;28;8857;-79
2022/04/15 08:02:49;;;;;;;;;18.20;17.60;;;;;21.29;21.77;99608.38;5097887;28;8855;-82
2022/04/15 08:05:18;;;;;;;;;17.20;17.20;;;;;20.93;21.85;99608.16;5065412;28;9003;-79
2022/04/15 08:07:46;;;;;;;;;11.00;9.00;;;;;21.16;21.51;99607.19;5025411;28;8853;-80
2022/04/15 08:10:15;;;;;;;;;11.40;8.20;;;;;21.29;21.36;99610.16;5057786;28;8862;-82
2022/04/15 08:12:44;;;;;;;;;15.80;13.80;;;;;21.31;21.29;99610.97;5059669;28;8848;-79
2022/04/15 08:15:14;;;;;;;;;14.80;13.20;;;;;20.96;22.06;99606.25;5067365;28;9105;-78
2022/04/15 08:17:42;;;;;;;;;18.00;17.00;;;;;21.41;21.60;99601.66;5073905;28;8885;-79
2022/04/15 08:20:11;;;;;;;;;21.60;20.40;;;;;21.40;21.14;99598.16;5085298;28;8850;-79
2022/04/15 08:22:40;;;;;;;;;15.40;15.00;;;;;21.37;21.18;99598.25;5055842;28;8860;-80
2022/04/15 08:25:10;;;;;;;;;17.20;16.60;;;;;21.75;20.70;99595.72;5068846;28;8866;-80
2022/04/15 08:27:38;;;;;;;;;12.00;11.60;;;;;22.04;19.86;99593.53;5052728;28;8864;-79
2022/04/15 08:30:08;;;;;;;;;15.40;12.60;;;;;22.23;19.25;99596.16;5057244;28;8857;-81
2022/04/15 08:32:38;;;;;;;;;12.00;11.80;;;;;22.45;19.20;99596.00;5065207;28;8859;-82
2022/04/15 08:35:12;;;;;;;;;39.75;35.75;;;;;22.53;23.20;99596.50;5082887;28;8854;-81
2022/04/15 08:37:41;;;;;;;;;44.25;36.00;;;;;22.42;24.15;99606.81;5067255;28;9008;-80
2022/04/15 08:40:12;;;;;;;;;45.00;38.25;;;;;22.37;24.14;99598.19;5066341;28;9674;-79
2022/04/15 08:42:42;;;;;;;;;42.75;36.50;;;;;22.34;24.44;99595.66;5051636;28;8900;-78
2022/04/15 08:45:13;;;;;;;;;31.00;29.50;;;;;21.73;25.36;99607.34;5068131;28;8846;-78
2022/04/15 08:47:43;;;;;;;;;17.50;16.25;;;;;21.97;25.15;99592.94;5096015;28;8868;-79
2022/04/15 08:50:13;;;;;;;;;35.75;31.25;;;;;21.74;25.40;99596.66;5048998;28;8852;-78
2022/04/15 08:52:42;;;;;;;;;35.25;32.50;;;;;21.12;26.20;99605.59;5049193;28;8861;-79
2022/04/15 08:55:11;;;;;;;;;32.50;29.75;;;;;21.07;25.97;99604.91;5069398;28;8850;-80
2022/04/15 08:57:40;;;;;;;;;30.50;27.25;;;;;20.94;25.29;99600.13;5067295;28;8873;-79
2022/04/15 09:00:10;;;;;;;;;29.50;29.00;;;;;21.30;26.18;99596.81;5084358;28;8900;-79
2022/04/15 09:02:38;;;;;;;;;30.25;28.75;;;;;21.64;25.71;99587.38;5081540;28;8857;-78
2022/04/15 09:05:14;;;;;;;;;32.50;31.00;;;;;21.96;25.13;99580.56;5067203;28;8873;-80
2022/04/15 09:07:44;;;;;;;;;31.25;30.25;;;;;22.24;25.34;99581.09;5078478;28;8883;-79
2022/04/15 09:10:15;;;;;;;;;31.75;30.00;;;;;22.49;24.82;99578.13;5079351;28;8865;-79
2022/04/15 09:12:46;;;;;;;;;27.00;27.00;;;;;22.74;24.68;99577.75;5069672;28;8862;-77
2022/04/15 09:15:15;;;;;;;;;28.75;28.25;;;;;22.94;24.06;99582.91;5069097;28;8862;-76
2022/04/15 09:17:49;;;;;;;;;35.75;31.00;;;;;22.75;24.24;99575.00;5068897;28;8830;-75
2022/04/15 09:20:33;;;;;;;;;29.25;28.50;;;;;22.84;24.37;99573.69;5053828;28;8959;-78
2022/04/15 09:23:09;;;;;;;;;30.50;27.75;;;;;23.06;23.92;99569.97;5065117;28;8878;-77
2022/04/15 09:25:40;;;;;;;;;31.25;29.75;;;;;23.18;24.23;99565.81;5064110;28;9011;-78
2022/04/15 09:28:08;;;;;;;;;32.00;31.50;;;;;23.28;23.98;99564.38;5032083;28;9655;-77
2022/04/15 09:30:43;;;;;;;;;30.75;29.00;;;;;23.38;23.86;99565.59;5063185;28;8907;-79
2022/04/15 09:33:12;;;;;;;;;31.25;30.00;;;;;23.21;23.72;99563.84;5061139;28;8845;-79
2022/04/15 09:35:46;;;;;;;;;30.00;28.50;;;;;23.11;23.96;99552.81;5025800;28;8847;-77
2022/04/15 09:38:15;;;;;;;;;21.25;20.00;;;;;22.22;24.13;99559.03;5065914;28;8835;-80
2022/04/15 09:40:44;;;;;;;;;22.25;21.75;;;;;22.30;23.98;99556.91;5044338;28;8853;-77
2022/04/15 09:43:13;;;;;;;;;19.75;17.00;;;;;22.20;22.47;99549.34;5032558;28;8847;-76
2022/04/15 09:45:42;;;;;;;;;23.25;19.00;;;;;22.39;20.76;99562.63;5048209;28;8850;-76
2022/04/15 09:48:12;;;;;;;;;14.25;14.25;;;;;22.15;19.35;99559.31;5062862;28;8977;-79
2022/04/15 09:50:42;;;;;;;;;14.75;14.75;;;;;22.38;19.57;99557.38;5059408;28;8853;-77
2022/04/15 09:53:14;;;;;;;;;14.25;14.25;;;;;22.63;19.52;99548.19;5092588;28;8873;-79
2022/04/15 09:55:44;;;;;;;;;18.00;16.25;;;;;22.76;20.32;99551.97;5029721;28;8885;-76
2022/04/15 09:58:15;;;;;;;;;21.25;19.75;;;;;22.86;18.98;99555.88;5056766;28;9730;-77
2022/04/15 10:00:48;;;;;;;;;15.75;15.00;;;;;23.11;19.98;99552.81;5083070;28;8884;-76
2022/04/15 10:03:20;;;;;;;;;18.25;17.00;;;;;23.26;20.16;99551.16;5050653;28;8838;-76
2022/04/15 10:05:50;;;;;;;;;18.50;16.75;;;;;23.02;18.96;99545.28;5063582;28;8858;-77
2022/04/15 10:08:22;;;;;;;;;18.00;16.25;;;;;23.15;19.30;99548.19;5082416;28;8928;-77
2022/04/15 10:10:51;;;;;;;;;16.00;15.75;;;;;23.28;19.60;99543.94;5102401;28;8948;-77
2022/04/15 10:13:26;;;;;;;;;16.75;16.25;;;;;23.50;19.42;99542.81;5052111;28;8850;-76
2022/04/15 10:15:56;;;;;;;;;16.00;15.00;;;;;23.72;19.43;99545.16;5068105;28;8871;-79
2022/04/15 10:18:26;;;;;;;;;21.75;19.50;;;;;23.50;19.70;99542.81;5084484;28;8842;-77
2022/04/15 10:20:55;;;;;;;;;19.25;19.25;;;;;23.12;20.60;99551.03;5083715;28;8850;-77
2022/04/15 10:23:26;;;;;;;;;21.75;20.00;;;;;22.64;20.67;99547.25;5067306;28;9536;-77
2022/04/15 10:25:55;;;;;;;;;22.50;22.50;;;;;22.56;20.96;99542.31;5084449;28;8830;-77
2022/04/15 10:28:39;;;;;;;;;20.25;18.75;;;;;22.20;21.13;99543.16;5055020;28;8848;-78
2022/04/15 10:31:11;;;;;;;;;22.25;21.00;;;;;21.99;20.97;99547.72;5084733;28;9006;-78
2022/04/15 10:33:43;;;;;;;;;20.75;18.25;;;;;21.80;20.74;99531.81;5068122;28;8869;-75
2022/04/15 10:36:14;;;;;;;;;21.75;20.25;;;;;22.28;20.87;99530.41;5067986;28;8857;-75
2022/04/15 10:39:19;;;;;;;;;18.25;18.25;;;;;22.55;18.67;99535.28;5082199;28;8927;-77
2022/04/15 10:41:58;;;;;;;;;21.50;17.75;;;;;22.95;19.82;99535.94;5065427;28;8877;-75
2022/04/15 10:44:33;;;;;;;;;20.25;20.00;;;;;23.31;19.54;99532.31;5048415;28;8965;-79
2022/04/15 10:47:11;;;;;;;;;15.75;14.50;;;;;23.44;19.22;99525.38;5018814;28;8866;-78
2022/04/15 10:49:55;;;;;;;;;24.00;20.50;;;;;23.18;20.72;99528.59;5046856;28;8864;-77
2022/04/15 10:52:25;;;;;;;;;22.75;22.50;;;;;23.07;20.40;99526.47;5066520;28;9587;-77
2022/04/15 10:54:59;;;;;;;;;19.75;19.25;;;;;23.17;19.99;99514.41;5047715;28;8843;-78
2022/04/15 10:57:33;;;;;;;;;5.75;5.00;;;;;23.15;19.63;99518.94;5097675;28;8837;-75
2022/04/15 11:02:50;;;;;;;;;17.25;16.25;;;;;22.81;17.91;99517.16;5067792;28;9449;-76
2022/04/15 11:05:35;;;;;;;;;21.25;20.00;;;;;22.96;18.49;99513.69;5067624;28;8874;-77
2022/04/15 11:08:08;;;;;;;;;23.75;23.25;;;;;22.65;18.35;99509.97;5061817;28;8853;-82
2022/04/15 11:10:59;;;;;;;;;20.00;19.75;;;;;22.65;18.50;99512.63;5021068;28;9010;-79
2022/04/15 11:13:34;;;;;;;;;15.75;15.75;;;;;23.01;18.30;99509.00;5086578;28;8977;-80
2022/04/15 11:16:11;;;;;;;;;24.75;24.00;;;;;23.24;18.06;99504.31;5033248;28;8841;-82
2022/04/15 11:18:50;;;;;;;;;18.25;18.25;;;;;23.51;18.08;99504.59;5039633;28;8853;-75
2022/04/15 11:21:27;;;;;;;;;20.50;20.50;;;;;23.78;17.47;99510.22;5061937;28;8857;-73
2022/04/15 11:24:01;;;;;;;;;20.75;20.50;;;;;24.14;17.43;99503.78;4995998;28;9006;-73
2022/04/15 11:26:32;;;;;;;;;22.00;21.25;;;;;23.98;16.65;99495.81;5046451;28;8891;-71
2022/04/15 11:29:03;;;;;;;;;22.25;19.75;;;;;24.49;17.69;99499.06;5049931;28;8945;-71
2022/04/15 11:31:34;;;;;;;;;19.00;18.00;;;;;24.91;17.46;99496.63;5063375;28;9676;-71
2022/04/15 11:34:05;;;;;;;;;20.75;19.00;;;;;25.21;16.67;99485.88;5055442;28;8923;-71
2022/04/15 11:36:36;;;;;;;;;17.25;16.25;;;;;25.28;15.65;99494.41;5055846;28;8977;-70
2022/04/15 11:39:07;;;;;;;;;17.75;16.00;;;;;24.78;15.79;99491.16;5069452;28;8862;-70
2022/04/15 11:41:44;;;;;;;;;16.50;15.50;;;;;25.04;15.91;99486.91;5070115;28;8850;-70